Time;durP1;ratioP1;P1;durP2;ratioP2;P2;SDS_P1;SDS_P2;PMS_P1;PMS_P2;Temp;Humidity;BMP_temperature;BMP_pressure;BME280_temperature;BME280_humidity;BME280_pressure;Samples;Min_cycle;Max_cycle;Signal;HPM_P1;HPM_P2
2023/04/21 00:00:43;;;;;;;29.65;19.40;;;;;;;7.31;100.00;101315.88;4998658;28;20057;-75
2023/04/21 00:03:08;;;;;;;30.42;18.63;;;;;;;7.32;100.00;101322.97;5012815;28;20025;-76
2023/04/21 00:05:34;;;;;;;31.55;19.75;;;;;;;7.28;100.00;101318.72;5021772;28;20040;-76
2023/04/21 00:07:59;;;;;;;29.73;19.10;;;;;;;7.27;100.00;101308.97;5011809;28;20132;-75
2023/04/21 00:10:24;;;;;;;31.67;19.77;;;;;;;7.22;100.00;101311.03;5016413;28;20021;-76
2023/04/21 00:12:50;;;;;;;32.67;21.08;;;;;;;7.22;100.00;101310.13;5022811;28;20064;-76
2023/04/21 00:15:15;;;;;;;31.52;19.02;;;;;;;7.20;100.00;101299.53;5022491;28;20034;-76
2023/04/21 00:17:40;;;;;;;32.47;20.52;;;;;;;7.18;100.00;101304.09;5025001;28;20053;-76
2023/04/21 00:20:07;;;;;;;30.50;19.25;;;;;;;7.17;100.00;101297.03;5004204;28;20091;-76
2023/04/21 00:22:33;;;;;;;30.73;20.70;;;;;;;7.19;100.00;101295.16;5006945;28;20037;-76
2023/04/21 00:24:58;;;;;;;32.75;21.42;;;;;;;7.23;100.00;101291.34;5001401;28;20017;-76
2023/04/21 00:27:23;;;;;;;33.05;20.35;;;;;;;7.20;100.00;101288.84;5020545;28;20470;-76
2023/04/21 00:29:48;;;;;;;32.05;21.13;;;;;;;7.23;100.00;101280.66;5002237;28;20029;-76
2023/04/21 00:32:15;;;;;;;32.58;21.73;;;;;;;7.26;100.00;101284.97;4999711;28;20522;-76
2023/04/21 00:34:43;;;;;;;33.13;21.13;;;;;;;7.23;100.00;101286.00;5021372;28;20056;-76
2023/04/21 00:37:09;;;;;;;34.47;21.13;;;;;;;7.24;100.00;101285.06;5005328;28;20535;-76
2023/04/21 00:39:34;;;;;;;35.25;24.13;;;;;;;7.28;100.00;101289.31;5009176;28;20113;-76
2023/04/21 00:42:00;;;;;;;33.60;21.80;;;;;;;7.25;100.00;101286.81;5005913;28;20048;-76
2023/04/21 00:44:25;;;;;;;31.92;21.70;;;;;;;7.22;100.00;101273.59;5006314;28;20392;-76
2023/04/21 00:46:50;;;;;;;32.72;21.77;;;;;;;7.23;100.00;101271.78;5006037;28;20017;-76
2023/04/21 00:49:16;;;;;;;33.17;22.45;;;;;;;7.22;100.00;101276.28;5006926;28;20122;-76
2023/04/21 00:51:41;;;;;;;31.05;21.38;;;;;;;7.26;100.00;101288.53;5018003;28;20038;-76
2023/04/21 00:54:09;;;;;;;34.38;21.98;;;;;;;7.25;100.00;101280.59;5008834;28;20381;-76
2023/04/21 00:56:35;;;;;;;31.98;21.23;;;;;;;7.25;100.00;101281.44;5004319;28;20068;-76
2023/04/21 00:59:01;;;;;;;36.97;22.38;;;;;;;7.26;100.00;101279.63;5013760;28;20057;-76
2023/04/21 01:01:30;;;;;;;34.08;22.25;;;;;;;7.24;100.00;101277.03;5011919;28;20044;-76
2023/04/21 01:04:00;;;;;;;35.53;21.90;;;;;;;7.26;100.00;101276.97;5014695;28;20910;-76
2023/04/21 01:06:33;;;;;;;33.83;22.80;;;;;;;7.27;100.00;101276.88;5022791;28;20033;-76
2023/04/21 01:08:59;;;;;;;33.33;20.45;;;;;;;7.23;100.00;101272.63;5002545;28;20026;-76
2023/04/21 01:11:25;;;;;;;35.95;23.58;;;;;;;7.23;100.00;101269.97;5003867;28;20402;-76
2023/04/21 01:13:54;;;;;;;32.45;21.45;;;;;;;7.22;100.00;101262.03;5003823;28;20034;-76
2023/04/21 01:16:21;;;;;;;33.10;20.98;;;;;;;7.22;100.00;101267.38;5021575;28;20031;-76
2023/04/21 01:18:47;;;;;;;33.35;22.05;;;;;;;7.21;100.00;101268.34;5019865;28;20032;-76
2023/04/21 01:21:13;;;;;;;33.20;21.15;;;;;;;7.20;100.00;101254.09;5002817;28;20030;-76
2023/04/21 01:23:42;;;;;;;31.13;20.23;;;;;;;7.18;100.00;101256.00;5000243;28;20159;-76
2023/04/21 01:26:08;;;;;;;34.08;22.15;;;;;;;7.17;100.00;101247.13;5003757;28;20025;-76
2023/04/21 01:28:33;;;;;;;32.92;21.30;;;;;;;7.17;100.00;101240.88;5012842;28;20117;-76
2023/04/21 01:30:59;;;;;;;33.05;21.83;;;;;;;7.18;100.00;101242.63;5006429;28;20116;-76
2023/04/21 01:33:24;;;;;;;32.92;22.42;;;;;;;7.15;100.00;101237.44;5022149;28;20088;-77
2023/04/21 01:35:50;;;;;;;32.85;21.60;;;;;;;7.12;100.00;101235.78;5016195;28;20022;-76
2023/04/21 01:38:17;;;;;;;38.38;23.10;;;;;;;7.11;100.00;101238.53;5024299;28;20051;-76
2023/04/21 01:40:45;;;;;;;33.45;21.15;;;;;;;7.08;100.00;101234.22;5014507;28;20111;-76
2023/04/21 01:43:11;;;;;;;32.20;20.50;;;;;;;7.09;100.00;101235.94;5017824;28;20025;-76
2023/04/21 01:45:36;;;;;;;32.95;20.85;;;;;;;7.08;100.00;101236.03;5003317;28;20037;-76
2023/04/21 01:48:02;;;;;;;36.08;21.60;;;;;;;7.06;100.00;101233.44;5004271;28;20040;-77
2023/04/21 01:50:27;;;;;;;37.63;20.85;;;;;;;7.04;100.00;101221.94;5018569;28;20145;-76
2023/04/21 01:52:52;;;;;;;32.85;20.67;;;;;;;7.05;100.00;101213.00;5008382;28;20556;-77
2023/04/21 01:55:18;;;;;;;32.35;20.23;;;;;;;7.03;100.00;101208.66;4998529;28;20107;-77
2023/04/21 01:57:43;;;;;;;34.22;19.90;;;;;;;7.03;100.00;101209.56;5001586;28;20038;-77
2023/04/21 02:00:09;;;;;;;31.92;20.52;;;;;;;6.99;100.00;101203.50;5019161;28;20082;-76
2023/04/21 02:02:34;;;;;;;31.90;19.83;;;;;;;6.97;100.00;101200.03;4990006;28;20021;-76
2023/04/21 02:05:00;;;;;;;31.05;19.55;;;;;;;6.94;100.00;101193.97;5003731;28;20030;-77
2023/04/21 02:07:25;;;;;;;36.00;20.08;;;;;;;6.92;100.00;101183.38;5023020;28;20424;-76
2023/04/21 02:09:50;;;;;;;33.00;19.55;;;;;;;6.90;100.00;101177.25;5005749;28;20100;-76
2023/04/21 02:12:15;;;;;;;33.55;20.20;;;;;;;6.89;100.00;101188.03;5018929;28;20025;-76
2023/04/21 02:14:41;;;;;;;31.48;19.40;;;;;;;6.91;100.00;101194.16;5001914;28;20022;-76
2023/04/21 02:17:06;;;;;;;33.03;20.40;;;;;;;6.92;100.00;101191.38;5020674;28;20033;-76
2023/04/21 02:19:31;;;;;;;31.85;19.17;;;;;;;6.96;100.00;101192.97;5018912;28;20079;-76
2023/04/21 02:22:05;;;;;;;32.63;19.98;;;;;;;6.98;100.00;101195.56;5054319;27;20733;-76
2023/04/21 02:24:30;;;;;;;30.85;19.70;;;;;;;7.00;100.00;101186.53;5070245;28;20032;-76
2023/04/21 02:26:57;;;;;;;31.65;19.98;;;;;;;6.98;100.00;101185.75;5061240;28;20111;-76
2023/04/21 02:29:22;;;;;;;31.55;19.63;;;;;;;6.98;100.00;101180.41;5056232;28;20111;-76
2023/04/21 02:31:47;;;;;;;32.83;19.48;;;;;;;6.96;100.00;101176.94;5048368;28;20811;-76
2023/04/21 02:34:12;;;;;;;32.55;19.92;;;;;;;6.96;100.00;101184.09;5053883;28;20197;-76
2023/04/21 02:36:38;;;;;;;32.22;19.23;;;;;;;6.96;100.00;101176.94;5051041;28;20024;-76
2023/04/21 02:39:03;;;;;;;32.28;19.13;;;;;;;6.92;100.00;101178.03;5051403;28;20025;-76
2023/04/21 02:41:28;;;;;;;32.00;19.15;;;;;;;6.94;100.00;101173.50;5056302;28;20060;-76
2023/04/21 02:43:54;;;;;;;32.55;19.98;;;;;;;6.95;100.00;101179.69;5055349;28;20029;-76
2023/04/21 02:46:19;;;;;;;33.35;20.90;;;;;;;6.94;100.00;101178.84;5056571;28;20479;-76
2023/04/21 02:48:45;;;;;;;34.60;20.58;;;;;;;6.95;100.00;101187.69;5056917;28;20421;-76
2023/04/21 02:51:14;;;;;;;36.83;21.13;;;;;;;6.95;100.00;101175.19;5057807;28;20039;-76
2023/04/21 02:53:40;;;;;;;36.83;22.65;;;;;;;6.96;100.00;101179.59;5049204;28;20457;-76
2023/04/21 02:56:07;;;;;;;34.85;21.27;;;;;;;6.95;100.00;101174.34;5037864;28;20769;-76
2023/04/21 02:58:34;;;;;;;32.53;21.70;;;;;;;6.94;100.00;101180.63;5033895;28;20133;-76
2023/04/21 03:01:00;;;;;;;33.78;22.52;;;;;;;6.96;100.00;101176.94;5030031;28;20064;-76
2023/04/21 03:03:25;;;;;;;34.92;21.65;;;;;;;6.95;100.00;101169.84;5024066;28;20081;-76
2023/04/21 03:05:58;;;;;;;34.72;21.35;;;;;;;6.95;100.00;101169.84;5045249;28;20038;-76
2023/04/21 03:08:23;;;;;;;36.42;22.65;;;;;;;6.95;100.00;101164.50;5034691;28;20021;-76
2023/04/21 03:10:49;;;;;;;36.40;20.80;;;;;;;6.93;100.00;101171.75;5035501;28;20487;-76
2023/04/21 03:13:15;;;;;;;35.13;22.60;;;;;;;6.91;100.00;101162.09;5031532;28;20055;-76
2023/04/21 03:15:40;;;;;;;34.53;21.35;;;;;;;6.87;100.00;101163.19;5032625;28;20022;-76
2023/04/21 03:18:05;;;;;;;32.75;20.17;;;;;;;6.81;100.00;101167.91;5033165;28;20053;-76
2023/04/21 03:20:31;;;;;;;34.13;21.27;;;;;;;6.79;100.00;101158.25;5029452;28;20034;-76
2023/04/21 03:22:56;;;;;;;36.10;22.17;;;;;;;6.76;100.00;101164.63;5036315;28;20155;-76
2023/04/21 03:25:22;;;;;;;34.92;23.40;;;;;;;6.73;100.00;101169.25;5034285;28;20033;-77
2023/04/21 03:27:47;;;;;;;35.80;21.65;;;;;;;6.70;100.00;101166.75;5037132;28;20072;-76
2023/04/21 03:30:12;;;;;;;39.63;22.85;;;;;;;6.65;100.00;101167.00;5043898;28;20497;-76
2023/04/21 03:32:37;;;;;;;36.25;22.55;;;;;;;6.60;100.00;101163.69;5028984;28;20044;-76
2023/04/21 03:35:03;;;;;;;38.92;23.83;;;;;;;6.58;100.00;101163.78;5017635;28;20037;-76
2023/04/21 03:37:29;;;;;;;37.58;22.13;;;;;;;6.56;100.00;101162.13;5014914;28;20477;-76
2023/04/21 03:39:54;;;;;;;38.58;25.02;;;;;;;6.53;100.00;101152.47;5025688;28;20029;-76
2023/04/21 03:42:19;;;;;;;39.00;24.75;;;;;;;6.53;100.00;101163.16;5023840;28;20067;-76
2023/04/21 03:44:45;;;;;;;37.28;22.85;;;;;;;6.52;100.00;101156.09;5014024;28;20429;-76
2023/04/21 03:47:10;;;;;;;36.15;23.52;;;;;;;6.56;100.00;101162.13;5002311;28;20033;-76
2023/04/21 03:49:35;;;;;;;36.92;25.70;;;;;;;6.57;100.00;101156.69;5019795;28;20030;-76
2023/04/21 03:52:01;;;;;;;42.42;27.08;;;;;;;6.61;100.00;101160.94;5020702;28;20125;-76
2023/04/21 03:54:26;;;;;;;40.95;26.02;;;;;;;6.64;100.00;101166.13;5021751;28;20029;-76
2023/04/21 03:56:51;;;;;;;41.53;26.25;;;;;;;6.67;100.00;101158.91;5008429;28;20068;-76
2023/04/21 03:59:17;;;;;;;41.60;26.95;;;;;;;6.71;100.00;101166.69;5017216;28;20034;-76
2023/04/21 04:01:42;;;;;;;42.03;26.98;;;;;;;6.74;100.00;101157.66;5008187;28;20183;-75
2023/04/21 04:04:07;;;;;;;38.08;26.30;;;;;;;6.74;100.00;101163.00;5019428;28;20040;-76
2023/04/21 04:06:34;;;;;;;44.53;28.33;;;;;;;6.77;100.00;101170.84;5051556;28;20030;-76
2023/04/21 04:09:03;;;;;;;42.97;26.70;;;;;;;6.79;100.00;101161.81;5019932;28;20424;-76
2023/04/21 04:11:28;;;;;;;40.08;27.55;;;;;;;6.80;100.00;101157.31;5023469;28;20461;-76
2023/04/21 04:13:54;;;;;;;40.65;28.75;;;;;;;6.82;100.00;101166.09;5009997;28;20041;-76
2023/04/21 04:16:19;;;;;;;43.95;28.30;;;;;;;6.84;100.00;101169.56;5010919;28;20025;-76
2023/04/21 04:18:44;;;;;;;42.50;26.42;;;;;;;6.84;100.00;101161.56;5031064;28;20026;-76
2023/04/21 04:21:10;;;;;;;41.58;28.25;;;;;;;6.88;100.00;101152.44;5037607;28;20030;-76
2023/04/21 04:23:35;;;;;;;44.05;29.52;;;;;;;6.89;100.00;101155.97;5021582;28;20503;-76
2023/04/21 04:26:04;;;;;;;44.88;28.75;;;;;;;6.90;100.00;101155.88;5014515;28;20022;-76
2023/04/21 04:28:29;;;;;;;45.42;29.15;;;;;;;6.92;100.00;101145.97;5020762;28;20110;-76
2023/04/21 04:30:55;;;;;;;41.03;26.52;;;;;;;6.92;100.00;101145.97;5015612;28;20160;-76
2023/04/21 04:33:20;;;;;;;39.17;26.70;;;;;;;6.96;100.00;101154.69;5033886;28;20494;-76
2023/04/21 04:35:46;;;;;;;47.95;29.60;;;;;;;6.96;100.00;101147.53;5021331;28;20112;-76
2023/04/21 04:38:13;;;;;;;46.35;29.85;;;;;;;7.02;100.00;101156.19;5006723;28;20102;-76
2023/04/21 04:40:39;;;;;;;43.42;29.23;;;;;;;7.01;100.00;101160.66;5019885;28;20029;-76
2023/04/21 04:43:04;;;;;;;44.40;29.95;;;;;;;7.02;100.00;101161.53;5033953;28;20397;-76
2023/04/21 04:45:31;;;;;;;43.10;28.85;;;;;;;7.03;100.00;101165.91;5017105;28;20029;-76
2023/04/21 04:47:57;;;;;;;49.30;30.83;;;;;;;7.04;100.00;101155.13;5019772;28;20036;-76
2023/04/21 04:50:23;;;;;;;47.22;31.83;;;;;;;7.05;100.00;101164.88;5021363;28;20353;-76
2023/04/21 04:52:49;;;;;;;47.72;30.92;;;;;;;7.06;100.00;101165.75;5013919;28;20026;-76
2023/04/21 04:55:14;;;;;;;44.22;29.35;;;;;;;7.07;100.00;101163.00;5016093;28;20030;-76
2023/04/21 04:57:40;;;;;;;46.67;30.85;;;;;;;7.07;100.00;101164.81;5008877;28;20038;-76
2023/04/21 05:00:09;;;;;;;46.97;32.30;;;;;;;7.08;100.00;101163.88;5016047;28;20048;-75
2023/04/21 05:02:35;;;;;;;;;;;;;;;7.15;100.00;101167.94;5003536;28;20040;-76
2023/04/21 05:05:01;;;;;;;47.17;32.65;;;;;;;7.12;100.00;101162.75;5004269;28;19913;-76
2023/04/21 05:07:26;;;;;;;48.20;33.25;;;;;;;7.13;100.00;101167.13;5026355;28;20081;-75
2023/04/21 05:09:51;;;;;;;51.00;34.20;;;;;;;7.14;100.00;101167.06;5018150;28;20033;-76
2023/04/21 05:12:17;;;;;;;45.72;32.38;;;;;;;7.16;100.00;101159.84;5011712;28;20025;-76
2023/04/21 05:14:42;;;;;;;50.72;34.70;;;;;;;7.19;100.00;101156.16;5021961;28;20022;-74
2023/04/21 05:17:07;;;;;;;48.78;34.50;;;;;;;7.20;100.00;101163.19;5017471;28;20033;-76
2023/04/21 05:19:36;;;;;;;50.58;35.88;;;;;;;7.22;100.00;101169.34;5015909;28;20485;-76
2023/04/21 05:22:02;;;;;;;50.67;34.67;;;;;;;7.22;100.00;101166.66;5020678;28;20034;-76
2023/04/21 05:24:27;;;;;;;54.45;36.47;;;;;;;7.22;100.00;101180.03;5015776;28;20385;-77
2023/04/21 05:26:53;;;;;;;54.15;37.05;;;;;;;7.23;100.00;101180.88;5026864;28;20135;-76
2023/04/21 05:29:18;;;;;;;52.22;35.22;;;;;;;7.26;100.00;101184.28;5024041;28;20049;-76
2023/04/21 05:31:43;;;;;;;56.28;38.15;;;;;;;7.28;100.00;101185.03;5019695;28;20029;-76
2023/04/21 05:34:09;;;;;;;52.67;34.63;;;;;;;7.34;100.00;101187.38;5016315;28;20022;-76
2023/04/21 05:36:34;;;;;;;54.10;36.45;;;;;;;7.38;100.00;101198.78;5022980;28;20065;-76
2023/04/21 05:38:59;;;;;;;53.55;37.00;;;;;;;7.39;100.00;101188.94;5017729;28;20034;-76
2023/04/21 05:41:25;;;;;;;52.78;36.92;;;;;;;7.39;100.00;101194.28;5017376;28;20524;-76
2023/04/21 05:43:50;;;;;;;57.17;37.92;;;;;;;7.40;100.00;101193.34;5025891;28;20032;-76
2023/04/21 05:46:15;;;;;;;58.03;37.92;;;;;;;7.41;100.00;101190.59;5025789;28;20034;-76
2023/04/21 05:48:40;;;;;;;55.42;38.17;;;;;;;7.44;100.00;101194.91;5013924;28;20017;-76
2023/04/21 05:51:10;;;;;;;51.55;36.65;;;;;;;7.45;100.00;101199.28;5012195;28;20382;-76
2023/04/21 05:53:37;;;;;;;52.28;36.58;;;;;;;7.45;100.00;101197.50;5026499;28;20021;-75
2023/04/21 05:56:02;;;;;;;62.35;37.08;;;;;;;7.48;100.00;101196.44;5022095;28;20033;-76
2023/04/21 05:58:28;;;;;;;59.67;37.08;;;;;;;7.49;100.00;101195.50;5018339;28;20088;-76
2023/04/21 06:00:53;;;;;;;55.70;36.90;;;;;;;7.49;100.00;101195.50;5014600;28;20476;-75
2023/04/21 06:03:18;;;;;;;56.30;38.72;;;;;;;7.50;100.00;101198.09;5015388;28;20036;-76
2023/04/21 06:05:43;;;;;;;53.83;37.03;;;;;;;7.53;100.00;101191.72;5010723;28;20055;-76
2023/04/21 06:08:09;;;;;;;53.90;38.20;;;;;;;7.56;100.00;101185.34;5009542;28;20018;-76
2023/04/21 06:10:34;;;;;;;57.83;39.08;;;;;;;7.58;100.00;101189.66;5026379;28;20026;-76
2023/04/21 06:12:59;;;;;;;55.55;37.25;;;;;;;7.58;100.00;101180.78;5014123;28;20033;-76
2023/04/21 06:15:25;;;;;;;57.13;36.80;;;;;;;7.62;100.00;101180.50;5024655;28;20385;-76
2023/04/21 06:17:56;;;;;;;50.70;36.00;;;;;;;7.63;100.00;101182.25;5014227;28;20389;-76
2023/04/21 06:20:21;;;;;;;51.88;35.35;;;;;;;7.66;100.00;101190.09;5021240;28;20053;-76
2023/04/21 06:22:47;;;;;;;49.60;36.42;;;;;;;7.67;100.00;101182.94;5018928;28;20030;-76
2023/04/21 06:25:12;;;;;;;56.38;36.83;;;;;;;7.70;100.00;101188.97;5020940;28;20477;-76
2023/04/21 06:27:37;;;;;;;51.88;36.97;;;;;;;7.76;100.00;101185.09;5018236;28;20504;-76
2023/04/21 06:30:03;;;;;;;49.80;34.65;;;;;;;7.80;100.00;101185.78;5020351;28;20095;-76
2023/04/21 06:32:28;;;;;;;53.83;35.28;;;;;;;7.86;100.00;101183.63;5019329;28;20435;-76
2023/04/21 06:34:53;;;;;;;54.45;37.80;;;;;;;7.93;100.00;101191.31;5022240;28;20029;-76
2023/04/21 06:37:19;;;;;;;59.10;35.72;;;;;;;7.92;100.00;101190.47;5009660;28;20165;-76
2023/04/21 06:39:44;;;;;;;50.28;35.50;;;;;;;7.96;100.00;101202.69;5020738;28;20048;-76
2023/04/21 06:42:09;;;;;;;52.03;35.50;;;;;;;8.00;100.00;101190.00;5022093;28;20061;-76
2023/04/21 06:44:35;;;;;;;52.88;36.40;;;;;;;8.04;100.00;101191.56;5018246;28;20017;-77
2023/04/21 06:47:00;;;;;;;51.50;35.28;;;;;;;8.03;100.00;101197.88;5021740;28;20329;-76
2023/04/21 06:49:25;;;;;;;51.58;37.13;;;;;;;8.01;100.00;101189.91;5022560;28;20111;-76
2023/04/21 06:51:50;;;;;;;55.28;37.13;;;;;;;8.08;100.00;101185.06;5016980;28;20429;-76
2023/04/21 06:54:16;;;;;;;50.78;35.00;;;;;;;8.09;100.00;101183.28;5023705;28;20163;-77
2023/04/21 06:56:41;;;;;;;51.95;35.28;;;;;;;8.12;100.00;101186.63;5021479;28;20556;-76
2023/04/21 06:59:08;;;;;;;50.15;33.95;;;;;;;8.15;100.00;101190.94;5000503;28;20019;-76
2023/04/21 07:01:34;;;;;;;45.28;33.17;;;;;;;8.15;100.00;101190.94;5014113;28;20049;-77
2023/04/21 07:03:59;;;;;;;51.45;35.95;;;;;;;8.19;100.00;101193.34;5009496;28;20111;-77
2023/04/21 07:06:25;;;;;;;45.95;33.08;;;;;;;8.23;100.00;101178.84;5024246;28;20060;-76
2023/04/21 07:08:50;;;;;;;51.00;34.47;;;;;;;8.26;100.00;101182.28;5025419;28;20100;-76
2023/04/21 07:11:15;;;;;;;50.45;32.78;;;;;;;8.28;100.00;101175.03;5014052;28;20030;-77
2023/04/21 07:13:41;;;;;;;51.30;33.97;;;;;;;8.27;100.00;101179.50;5027986;28;20034;-76
2023/04/21 07:16:06;;;;;;;47.17;34.80;;;;;;;8.31;100.00;101177.53;5024290;28;20381;-77
2023/04/21 07:18:33;;;;;;;49.17;33.65;;;;;;;8.32;100.00;101182.78;5019947;28;20184;-77
2023/04/21 07:20:58;;;;;;;46.80;34.80;;;;;;;8.37;100.00;101190.56;5021030;28;20112;-77
2023/04/21 07:23:24;;;;;;;49.95;34.35;;;;;;;8.43;100.00;101186.66;5025103;28;20025;-77
2023/04/21 07:25:50;;;;;;;50.03;32.80;;;;;;;8.50;100.00;101188.91;5025382;28;20389;-76
2023/04/21 07:28:15;;;;;;;49.53;32.78;;;;;;;8.61;100.00;101190.97;5025223;28;20037;-76
2023/04/21 07:30:41;;;;;;;40.47;29.65;;;;;;;8.66;100.00;101186.19;5016523;28;20452;-76
2023/04/21 07:33:07;;;;;;;43.70;31.80;;;;;;;8.71;100.00;101193.94;5025712;28;20433;-77
2023/04/21 07:35:33;;;;;;;41.60;30.65;;;;;;;8.74;100.00;101175.00;5021222;28;20025;-76
2023/04/21 07:37:58;;;;;;;45.30;31.13;;;;;;;8.79;100.00;101182.78;5021598;28;20108;-76
2023/04/21 07:40:23;;;;;;;38.78;27.13;;;;;;;8.81;100.00;101184.38;5024593;28;20366;-76
2023/04/21 07:42:49;;;;;;;39.88;25.45;;;;;;;8.83;100.00;101176.25;5017987;28;20104;-76
2023/04/21 07:45:14;;;;;;;40.95;27.33;;;;;;;8.88;100.00;101182.22;5033213;28;20025;-77
2023/04/21 07:47:39;;;;;;;40.08;27.48;;;;;;;8.90;100.00;101186.53;5022058;28;20030;-77
2023/04/21 07:50:05;;;;;;;37.90;25.33;;;;;;;8.93;100.00;101174.72;5021912;28;20057;-77
2023/04/21 07:52:31;;;;;;;41.53;26.95;;;;;;;8.97;100.00;101176.28;5011774;28;20017;-77
2023/04/21 07:54:56;;;;;;;37.60;24.20;;;;;;;9.01;99.77;101183.19;5022123;28;20025;-77
2023/04/21 07:57:22;;;;;;;34.30;24.63;;;;;;;9.06;100.00;101178.41;5016290;28;20056;-76
2023/04/21 07:59:47;;;;;;;36.58;23.95;;;;;;;9.09;98.50;101180.00;5040827;28;20037;-77
2023/04/21 08:02:12;;;;;;;36.38;23.55;;;;;;;9.13;99.16;101176.19;5013551;28;20051;-75
2023/04/21 08:04:37;;;;;;;37.42;24.95;;;;;;;9.14;99.29;101177.06;5019379;28;20430;-76
2023/04/21 08:07:03;;;;;;;39.05;24.55;;;;;;;9.16;98.19;101175.16;5037484;28;20046;-77
2023/04/21 08:09:28;;;;;;;38.20;24.15;;;;;;;9.21;99.07;101173.03;5022618;28;20482;-77
2023/04/21 08:11:54;;;;;;;33.45;22.08;;;;;;;9.23;95.25;101171.13;5022025;28;20056;-76
2023/04/21 08:14:19;;;;;;;36.25;22.60;;;;;;;9.32;98.82;101177.75;5016707;28;20033;-77
2023/04/21 08:16:45;;;;;;;33.80;21.48;;;;;;;9.37;95.94;101172.94;5018647;28;20022;-77
2023/04/21 08:19:10;;;;;;;33.05;21.42;;;;;;;9.41;94.87;101166.41;5039168;28;20028;-77
2023/04/21 08:21:36;;;;;;;36.38;22.25;;;;;;;9.49;96.07;101168.59;5022573;28;20050;-77
2023/04/21 08:24:01;;;;;;;35.90;23.35;;;;;;;9.59;98.62;101173.31;5023211;28;20029;-77
2023/04/21 08:26:28;;;;;;;34.13;22.10;;;;;;;9.64;97.47;101175.69;5011997;28;20408;-77
2023/04/21 08:28:54;;;;;;;33.78;22.75;;;;;;;9.72;96.62;101173.38;5019704;28;20036;-77
2023/04/21 08:31:20;;;;;;;34.95;21.52;;;;;;;9.78;94.44;101172.97;5025380;28;20033;-77
2023/04/21 08:33:45;;;;;;;35.92;22.25;;;;;;;9.84;94.91;101168.16;5015328;28;20037;-76
2023/04/21 08:36:10;;;;;;;27.98;17.85;;;;;;;9.89;92.33;101166.06;5033370;28;20033;-76
2023/04/21 08:38:37;;;;;;;32.95;18.92;;;;;;;9.92;89.42;101168.53;5020427;28;20031;-76
2023/04/21 08:41:03;;;;;;;31.88;19.75;;;;;;;9.97;90.16;101163.69;5017960;28;20034;-76
2023/04/21 08:43:29;;;;;;;34.75;18.55;;;;;;;10.04;91.88;101165.03;5018683;28;20038;-76
2023/04/21 08:45:55;;;;;;;34.92;19.88;;;;;;;10.09;90.89;101157.53;5018365;28;20105;-76
2023/04/21 08:48:22;;;;;;;28.88;17.80;;;;;;;10.14;87.90;101163.44;5018615;28;20493;-76
2023/04/21 08:50:49;;;;;;;31.05;18.98;;;;;;;10.25;91.83;101156.50;5022811;28;20021;-76
2023/04/21 08:53:15;;;;;;;29.70;17.70;;;;;;;10.32;91.74;101160.50;5024764;28;20026;-76
2023/04/21 08:55:41;;;;;;;32.88;19.17;;;;;;;10.36;90.28;101162.06;5020129;28;20029;-76
2023/04/21 08:58:08;;;;;;;30.30;18.05;;;;;;;10.42;88.30;101166.16;5023125;28;20030;-76
2023/04/21 09:00:34;;;;;;;31.42;18.17;;;;;;;10.45;87.57;101164.13;5018014;28;20033;-76
2023/04/21 09:03:00;;;;;;;33.50;18.48;;;;;;;10.55;88.12;101155.44;5015976;28;20044;-76
2023/04/21 09:05:30;;;;;;;29.10;16.20;;;;;;;10.64;87.42;101149.41;5014574;28;20026;-76
2023/04/21 09:08:17;;;;;;;31.35;18.30;;;;;;;10.75;90.17;101146.88;5019402;28;20508;-76
2023/04/21 09:10:50;;;;;;;27.70;15.27;;;;;;;10.85;84.14;101155.16;5013781;28;20103;-76
2023/04/21 09:13:16;;;;;;;28.90;15.15;;;;;;;10.99;86.52;101149.66;5013105;28;20028;-76
2023/04/21 09:15:44;;;;;;;28.27;15.02;;;;;;;11.05;82.62;101148.38;5023852;28;20088;-77
2023/04/21 09:18:12;;;;;;;27.88;15.43;;;;;;;11.13;83.80;101146.00;5010182;28;20086;-76
2023/04/21 09:20:37;;;;;;;27.75;14.32;;;;;;;11.26;84.33;101137.03;5009283;28;20057;-76
2023/04/21 09:23:06;;;;;;;29.90;15.80;;;;;;;11.28;80.71;101140.50;5022758;28;20025;-76
2023/04/21 09:25:32;;;;;;;26.17;14.33;;;;;;;11.29;82.38;101142.19;5005786;28;20041;-76
2023/04/21 09:27:59;;;;;;;27.40;15.73;;;;;;;11.36;85.21;101147.06;5015016;28;20292;-76
2023/04/21 09:30:25;;;;;;;25.63;14.52;;;;;;;11.41;83.98;101138.63;5032926;28;20087;-77
2023/04/21 09:32:51;;;;;;;27.67;14.93;;;;;;;11.51;81.76;101155.00;5020280;28;20037;-77
2023/04/21 09:35:16;;;;;;;25.75;13.60;;;;;;;11.62;79.11;101141.59;5032113;28;20132;-77
2023/04/21 09:37:44;;;;;;;26.30;15.18;;;;;;;11.74;82.83;101147.06;5016157;28;20447;-76
2023/04/21 09:40:14;;;;;;;28.50;15.40;;;;;;;11.76;81.37;101145.09;5019359;28;20542;-76
2023/04/21 09:42:40;;;;;;;26.30;15.80;;;;;;;11.78;83.63;101135.09;5020326;28;20212;-77
2023/04/21 09:45:09;;;;;;;27.08;13.75;;;;;;;11.85;80.47;101141.75;5020511;28;20037;-77
2023/04/21 09:47:40;;;;;;;25.80;13.32;;;;;;;11.91;80.74;101141.28;5034151;28;20053;-76
2023/04/21 09:50:06;;;;;;;24.85;11.88;;;;;;;11.98;75.27;101141.72;5035734;28;20402;-82
2023/04/21 09:52:32;;;;;;;24.55;12.40;;;;;;;12.06;77.57;101134.81;5016938;28;20099;-78
2023/04/21 09:55:03;;;;;;;25.42;13.13;;;;;;;12.16;75.27;101134.09;5019838;28;20120;-82
2023/04/21 09:57:31;;;;;;;23.83;11.68;;;;;;;12.23;77.01;101128.13;5021656;28;20135;-80
2023/04/21 10:00:04;;;;;;;27.15;13.57;;;;;;;12.33;76.90;101119.31;5016796;28;20115;-80
2023/04/21 10:02:30;;;;;;;24.38;11.43;;;;;;;12.41;76.00;101122.31;5017979;28;20034;-80
2023/04/21 10:04:56;;;;;;;26.27;11.23;;;;;;;12.48;75.17;101125.41;5019280;28;20511;-81
2023/04/21 10:07:21;;;;;;;24.55;12.18;;;;;;;12.47;72.51;101126.38;5019439;28;20120;-81
2023/04/21 10:09:53;;;;;;;24.73;12.13;;;;;;;12.49;73.59;101114.50;5021163;28;20029;-80
2023/04/21 10:12:18;;;;;;;25.88;12.80;;;;;;;12.53;72.47;101110.59;5013610;28;20120;-81
2023/04/21 10:14:44;;;;;;;24.23;12.00;;;;;;;12.62;73.27;101116.22;5019863;28;20108;-80
2023/04/21 10:17:10;;;;;;;25.73;13.18;;;;;;;12.75;73.59;101111.59;5018639;28;20048;-79
2023/04/21 10:19:40;;;;;;;25.83;12.98;;;;;;;12.88;73.86;101109.63;5016973;28;21246;-77
2023/04/21 10:22:09;;;;;;;27.17;13.60;;;;;;;12.94;71.76;101102.91;5037156;28;20037;-80
2023/04/21 10:24:39;;;;;;;26.33;13.88;;;;;;;13.00;74.18;101096.16;5007745;28;20033;-80
2023/04/21 10:27:08;;;;;;;29.33;15.25;;;;;;;13.00;73.93;101099.75;5023024;28;20063;-79
2023/04/21 10:29:33;;;;;;;25.98;14.93;;;;;;;12.99;75.31;101094.44;5011473;28;20026;-79
2023/04/21 10:31:59;;;;;;;27.30;15.27;;;;;;;12.99;74.85;101089.91;5019660;28;20037;-80
2023/04/21 10:34:36;;;;;;;27.65;15.65;;;;;;;12.98;75.56;101082.78;5020336;28;20037;-76
2023/04/21 10:37:04;;;;;;;26.17;15.23;;;;;;;13.04;74.48;101085.00;5019461;28;20789;-80
2023/04/21 10:39:53;;;;;;;25.40;13.88;;;;;;;13.09;72.40;101073.88;5017816;28;20723;-80
2023/04/21 10:42:26;;;;;;;26.10;14.50;;;;;;;13.19;71.65;101082.06;5019184;28;20182;-80
2023/04/21 10:45:05;;;;;;;24.73;14.40;;;;;;;13.27;73.19;101066.97;5013060;28;20029;-80
2023/04/21 10:47:42;;;;;;;26.33;14.68;;;;;;;13.36;73.02;101075.34;5027446;28;20538;-79
2023/04/21 10:50:15;;;;;;;26.65;15.07;;;;;;;13.42;74.23;101061.31;5018563;28;20037;-80
2023/04/21 10:52:56;;;;;;;28.48;15.40;;;;;;;13.41;73.06;101065.88;5025912;28;20029;-80
2023/04/21 10:55:25;;;;;;;26.85;14.52;;;;;;;13.40;73.40;101071.41;5021809;28;20392;-80
2023/04/21 10:57:51;;;;;;;;;;;;;;;13.41;75.53;101068.56;5028619;28;20086;-80
2023/04/21 11:00:22;;;;;;;24.98;14.18;;;;;;;13.41;73.39;101062.28;5051251;28;20822;-81
2023/04/21 11:02:56;;;;;;;27.67;14.05;;;;;;;13.35;71.45;101060.94;5009701;28;20439;-79
2023/04/21 11:05:34;;;;;;;24.20;14.18;;;;;;;13.35;72.70;101060.09;5021465;28;20080;-79